createdAt,value
2023-05-08T00:00:33.971Z,41.17
2023-05-08T00:03:01.496Z,40.35
2023-05-08T00:05:28.948Z,40.90
2023-05-08T00:08:01.404Z,41.02
2023-05-08T00:10:29.188Z,41.44
2023-05-08T00:12:56.529Z,40.64
2023-05-08T00:15:23.851Z,40.93
2023-05-08T00:17:51.786Z,41.51
2023-05-08T00:20:19.061Z,40.99
2023-05-08T00:22:46.291Z,41.16
2023-05-08T00:25:13.672Z,41.46
2023-05-08T00:27:41.000Z,41.31
2023-05-08T00:30:08.745Z,41.09
2023-05-08T00:32:36.830Z,41.33
2023-05-08T00:35:04.349Z,41.50
2023-05-08T00:37:31.701Z,41.11
2023-05-08T00:39:59.218Z,41.32
2023-05-08T00:42:26.453Z,41.29
2023-05-08T00:44:53.721Z,41.41
2023-05-08T00:47:21.056Z,41.62
2023-05-08T00:49:48.413Z,41.28
2023-05-08T00:52:15.650Z,41.11
2023-05-08T00:54:42.860Z,41.11
2023-05-08T00:57:10.062Z,41.48
2023-05-08T00:59:37.721Z,41.83
2023-05-08T01:02:05.135Z,41.52
2023-05-08T01:04:32.391Z,41.52
2023-05-08T01:07:01.374Z,41.41
2023-05-08T01:09:28.776Z,41.33
2023-05-08T01:11:56.991Z,41.87
2023-05-08T01:14:37.592Z,41.96
2023-05-08T01:17:15.061Z,41.33
2023-05-08T01:20:23.733Z,41.60
2023-05-08T01:23:28.301Z,41.71
2023-05-08T01:26:22.131Z,42.23
2023-05-08T01:29:27.074Z,41.96
2023-05-08T01:32:14.561Z,41.64
2023-05-08T01:35:07.875Z,41.75
2023-05-08T01:37:45.521Z,41.83
2023-05-08T01:40:38.885Z,42.00
2023-05-08T01:43:13.421Z,42.21
2023-05-08T01:45:41.972Z,41.95
2023-05-08T01:48:13.714Z,42.09
2023-05-08T01:50:48.603Z,41.82
2023-05-08T01:53:23.134Z,41.78
2023-05-08T01:55:51.237Z,41.71
2023-05-08T01:58:18.776Z,41.98
2023-05-08T02:00:46.027Z,42.29
2023-05-08T02:03:14.013Z,42.37
2023-05-08T02:05:41.315Z,41.92
2023-05-08T02:08:08.773Z,41.80
2023-05-08T02:10:36.181Z,42.21
2023-05-08T02:13:03.512Z,42.21
2023-05-08T02:15:30.913Z,42.29
2023-05-08T02:17:58.104Z,42.68
2023-05-08T02:20:25.418Z,42.19
2023-05-08T02:22:52.713Z,42.33
2023-05-08T02:25:20.005Z,42.51
2023-05-08T02:27:48.300Z,42.64
2023-05-08T02:30:16.440Z,42.28
2023-05-08T02:32:45.146Z,42.78
2023-05-08T02:35:16.661Z,42.18
2023-05-08T02:37:45.195Z,42.29
2023-05-08T02:40:13.215Z,42.19
2023-05-08T02:42:40.953Z,41.96
2023-05-08T02:45:08.816Z,41.86
2023-05-08T02:47:52.799Z,41.92
2023-05-08T02:50:25.398Z,42.74
2023-05-08T02:52:54.993Z,41.77
2023-05-08T02:55:23.985Z,41.87
2023-05-08T02:57:59.800Z,42.44
2023-05-08T03:00:35.535Z,42.28
2023-05-08T03:03:08.099Z,42.62
2023-05-08T03:05:37.083Z,42.64
2023-05-08T03:08:08.119Z,42.48
2023-05-08T03:10:36.340Z,42.23
2023-05-08T03:13:04.960Z,42.36
2023-05-08T03:15:37.918Z,42.34
2023-05-08T03:18:10.556Z,42.23
2023-05-08T03:20:39.091Z,41.92
2023-05-08T03:23:06.737Z,41.87
2023-05-08T03:25:34.241Z,42.73
2023-05-08T03:28:01.572Z,42.25
2023-05-08T03:30:28.966Z,42.47
2023-05-08T03:32:56.686Z,42.40
2023-05-08T03:35:23.916Z,42.42
2023-05-08T03:37:53.343Z,42.40
2023-05-08T03:40:20.663Z,42.38
2023-05-08T03:42:47.947Z,42.15
2023-05-08T03:45:15.296Z,41.69
2023-05-08T03:47:44.300Z,42.15
2023-05-08T03:50:11.904Z,41.85
2023-05-08T03:52:39.415Z,42.33
2023-05-08T03:55:07.456Z,41.87
2023-05-08T03:57:39.365Z,42.05
2023-05-08T04:00:09.861Z,42.25
2023-05-08T04:02:42.514Z,42.25
2023-05-08T04:05:37.738Z,42.81
2023-05-08T04:08:15.193Z,42.61
2023-05-08T04:11:18.446Z,41.90
2023-05-08T04:13:55.518Z,42.49
2023-05-08T04:16:27.676Z,42.53
2023-05-08T04:19:05.742Z,42.91
2023-05-08T04:21:34.152Z,42.39
2023-05-08T04:24:01.369Z,42.59
2023-05-08T04:26:28.634Z,42.61
2023-05-08T04:28:56.106Z,42.31
2023-05-08T04:31:23.416Z,42.85
2023-05-08T04:33:50.667Z,42.55
2023-05-08T04:36:18.246Z,42.26
2023-05-08T04:38:45.659Z,42.24
2023-05-08T04:41:13.083Z,42.04
2023-05-08T04:43:40.345Z,42.38
2023-05-08T04:46:08.158Z,42.54
2023-05-08T04:48:35.536Z,42.61
2023-05-08T04:51:02.800Z,42.31
2023-05-08T04:53:30.115Z,43.14
2023-05-08T04:55:58.547Z,42.33
2023-05-08T04:58:25.850Z,42.43
2023-05-08T05:00:53.101Z,43.10
2023-05-08T05:03:20.534Z,43.04
2023-05-08T05:05:47.776Z,42.89
2023-05-08T05:08:15.331Z,43.36
2023-05-08T05:10:42.603Z,42.58
2023-05-08T05:13:11.183Z,43.08
2023-05-08T05:15:38.406Z,43.12
2023-05-08T05:18:05.765Z,42.13
2023-05-08T05:20:33.726Z,42.25
2023-05-08T05:23:00.943Z,41.86
2023-05-08T05:25:28.195Z,42.19
2023-05-08T05:27:55.384Z,41.79
2023-05-08T05:30:22.706Z,41.98
2023-05-08T05:32:50.011Z,41.43
2023-05-08T05:35:17.286Z,41.48
2023-05-08T05:37:44.638Z,41.45
2023-05-08T05:40:13.386Z,41.52
2023-05-08T05:42:40.948Z,41.59
2023-05-08T05:45:08.529Z,41.77
2023-05-08T05:47:36.241Z,41.98
2023-05-08T05:50:03.718Z,41.21
2023-05-08T05:52:31.743Z,41.90
2023-05-08T05:54:59.065Z,40.99
2023-05-08T05:57:26.290Z,41.57
2023-05-08T05:59:54.841Z,41.71
2023-05-08T06:02:22.350Z,41.05
2023-05-08T06:04:51.679Z,41.14
2023-05-08T06:07:20.829Z,41.54
2023-05-08T06:09:48.222Z,41.88
2023-05-08T06:12:15.448Z,41.26
2023-05-08T06:14:43.003Z,41.74
2023-05-08T06:17:10.414Z,41.56
2023-05-08T06:19:37.666Z,41.73
2023-05-08T06:22:04.989Z,41.32
2023-05-08T06:24:33.306Z,41.27
2023-05-08T06:27:00.898Z,40.78
2023-05-08T06:29:28.156Z,40.65
2023-05-08T06:31:55.713Z,41.01
2023-05-08T06:34:22.930Z,40.71
2023-05-08T06:36:50.164Z,40.91
2023-05-08T06:39:17.870Z,40.96
2023-05-08T06:41:48.967Z,40.46
2023-05-08T06:44:16.800Z,40.29
2023-05-08T06:46:44.114Z,41.15
2023-05-08T06:49:11.377Z,40.95
2023-05-08T06:51:39.470Z,40.85
2023-05-08T06:54:08.279Z,40.12
2023-05-08T06:56:35.954Z,40.89
2023-05-08T06:59:08.419Z,40.94
2023-05-08T07:01:37.639Z,41.58
2023-05-08T07:04:05.141Z,40.49
2023-05-08T07:06:32.719Z,40.91
2023-05-08T07:09:00.032Z,39.83
2023-05-08T07:11:27.328Z,40.06
2023-05-08T07:13:55.547Z,39.85
2023-05-08T07:16:22.790Z,39.57
2023-05-08T07:18:50.082Z,39.64
2023-05-08T07:21:18.829Z,39.92
2023-05-08T07:23:46.221Z,39.62
2023-05-08T07:26:13.549Z,39.28
2023-05-08T07:28:41.065Z,39.00
2023-05-08T07:31:08.434Z,38.52
2023-05-08T07:33:35.829Z,38.27
2023-05-08T07:36:03.123Z,37.75
2023-05-08T07:38:30.948Z,38.27
2023-05-08T07:40:59.632Z,38.21
2023-05-08T07:43:27.185Z,38.28
2023-05-08T07:45:54.388Z,38.66
2023-05-08T07:48:21.834Z,37.70
2023-05-08T07:50:52.270Z,38.77
2023-05-08T07:53:19.545Z,39.57
2023-05-08T07:55:46.776Z,39.39
2023-05-08T07:58:14.492Z,38.82
2023-05-08T08:00:41.735Z,38.96
2023-05-08T08:03:09.013Z,38.45
2023-05-08T08:05:36.283Z,37.69
2023-05-08T08:08:03.688Z,37.98
2023-05-08T08:10:31.574Z,38.49
2023-05-08T08:12:59.232Z,38.75
2023-05-08T08:15:28.535Z,39.15
2023-05-08T08:17:55.794Z,38.07
2023-05-08T08:20:23.225Z,38.59
2023-05-08T08:22:50.680Z,37.39
2023-05-08T08:25:17.995Z,37.89
2023-05-08T08:27:45.536Z,38.41
2023-05-08T08:30:17.943Z,37.95
2023-05-08T08:32:45.861Z,36.90
2023-05-08T08:35:13.854Z,37.21
2023-05-08T08:37:42.035Z,37.95
2023-05-08T08:40:09.506Z,38.33
2023-05-08T08:42:36.844Z,37.34
2023-05-08T08:45:04.439Z,38.28
2023-05-08T08:47:37.454Z,37.07
2023-05-08T08:50:05.434Z,38.08
2023-05-08T08:52:40.213Z,37.70
2023-05-08T08:55:09.255Z,36.76
2023-05-08T08:57:37.215Z,36.56
2023-05-08T09:00:05.461Z,37.66
2023-05-08T09:02:34.021Z,36.57
2023-05-08T09:05:01.876Z,36.93
2023-05-08T09:07:30.197Z,36.82
2023-05-08T09:09:57.532Z,36.67
2023-05-08T09:12:24.963Z,36.72
2023-05-08T09:14:52.274Z,35.39
2023-05-08T09:17:19.470Z,36.05
2023-05-08T09:19:49.300Z,34.68
2023-05-08T09:22:16.597Z,34.24
2023-05-08T09:24:57.511Z,33.46
2023-05-08T09:27:26.587Z,32.92
2023-05-08T09:30:01.937Z,32.85
2023-05-08T09:32:30.979Z,30.06
2023-05-08T09:34:58.435Z,29.72
2023-05-08T09:37:26.149Z,29.05
2023-05-08T09:39:54.269Z,29.29
2023-05-08T09:42:23.055Z,29.61
2023-05-08T09:44:51.593Z,28.20
2023-05-08T09:47:23.387Z,28.78
2023-05-08T09:50:03.832Z,27.82
2023-05-08T09:52:32.563Z,28.80
2023-05-08T09:55:03.277Z,28.01
2023-05-08T09:57:31.762Z,27.05
2023-05-08T10:00:10.328Z,27.81
2023-05-08T10:02:42.649Z,27.73
2023-05-08T10:05:32.935Z,27.14
2023-05-08T10:08:21.143Z,26.42
2023-05-08T10:10:48.632Z,25.92
2023-05-08T10:13:16.027Z,26.41
2023-05-08T10:15:43.764Z,26.84
2023-05-08T10:18:12.208Z,27.15
2023-05-08T10:20:40.907Z,27.68
2023-05-08T10:23:11.658Z,28.71
2023-05-08T10:25:48.522Z,29.86
2023-05-08T10:28:29.135Z,28.80
2023-05-08T10:30:56.983Z,30.34
2023-05-08T10:33:25.991Z,30.50
2023-05-08T10:35:53.256Z,27.97
2023-05-08T10:38:20.532Z,27.32
2023-05-08T10:40:47.884Z,27.80
2023-05-08T10:43:15.110Z,25.87
2023-05-08T10:45:42.644Z,25.60
2023-05-08T10:48:31.538Z,28.63
2023-05-08T10:51:51.114Z,30.86
2023-05-08T10:54:58.819Z,31.95
2023-05-08T10:57:26.118Z,31.81
2023-05-08T10:59:53.350Z,30.70
2023-05-08T11:02:30.339Z,30.48
2023-05-08T11:05:18.419Z,29.83
2023-05-08T11:07:59.259Z,29.20
2023-05-08T11:10:31.159Z,29.35
2023-05-08T11:12:59.178Z,30.64
2023-05-08T11:15:39.995Z,31.22
2023-05-08T11:18:11.557Z,27.96
2023-05-08T11:20:42.772Z,26.66
2023-05-08T11:23:23.909Z,27.19
2023-05-08T11:26:04.169Z,28.22
2023-05-08T11:28:33.771Z,30.10
2023-05-08T11:31:05.651Z,29.71
2023-05-08T11:33:41.048Z,31.35
2023-05-08T11:36:14.323Z,31.28
2023-05-08T11:38:43.509Z,30.11
2023-05-08T11:41:12.050Z,30.87
2023-05-08T11:43:57.945Z,31.79
2023-05-08T11:46:25.754Z,33.13
2023-05-08T11:48:59.736Z,34.51
2023-05-08T11:51:30.985Z,34.92
2023-05-08T11:53:58.469Z,34.37
2023-05-08T11:56:26.630Z,33.76
2023-05-08T11:59:06.942Z,34.17
2023-05-08T12:01:34.619Z,34.45
2023-05-08T12:04:03.080Z,33.77
2023-05-08T12:06:32.027Z,34.38
2023-05-08T12:09:00.173Z,33.76
2023-05-08T12:11:27.572Z,30.91
2023-05-08T12:13:54.957Z,28.81
2023-05-08T12:16:26.209Z,27.63
2023-05-08T12:18:53.507Z,27.16
2023-05-08T12:21:21.333Z,27.63
2023-05-08T12:23:49.083Z,27.55
2023-05-08T12:26:16.366Z,28.55
2023-05-08T12:28:45.027Z,30.34
2023-05-08T12:31:12.801Z,30.88
2023-05-08T12:33:40.422Z,32.12
2023-05-08T12:36:07.718Z,32.37
2023-05-08T12:38:35.365Z,33.03
2023-05-08T12:41:04.414Z,33.29
2023-05-08T12:43:32.849Z,32.83
2023-05-08T12:46:00.183Z,33.61
2023-05-08T12:48:27.843Z,34.11
2023-05-08T12:50:55.203Z,33.47
2023-05-08T12:53:23.094Z,34.20
2023-05-08T12:55:54.600Z,33.61
2023-05-08T12:58:26.272Z,34.16
2023-05-08T13:00:53.975Z,34.12
2023-05-08T13:03:28.828Z,33.98
2023-05-08T13:05:57.478Z,34.42
2023-05-08T13:08:35.188Z,34.24
2023-05-08T13:11:03.819Z,34.34
2023-05-08T13:13:32.133Z,34.28
2023-05-08T13:16:02.639Z,34.38
2023-05-08T13:18:30.612Z,34.32
2023-05-08T13:20:57.861Z,34.11
2023-05-08T13:23:25.138Z,34.80
2023-05-08T13:25:52.418Z,34.49
2023-05-08T13:28:19.870Z,32.88
2023-05-08T13:30:47.081Z,31.11
2023-05-08T13:33:14.946Z,31.22
2023-05-08T13:35:42.153Z,31.17
2023-05-08T13:38:09.365Z,31.47
2023-05-08T13:40:36.767Z,30.63
2023-05-08T13:43:04.076Z,30.97
2023-05-08T13:45:33.065Z,31.18
2023-05-08T13:48:00.520Z,32.11
2023-05-08T13:50:28.349Z,32.48
2023-05-08T13:52:55.596Z,33.07
2023-05-08T13:55:23.409Z,33.42
2023-05-08T13:57:51.010Z,34.63
2023-05-08T14:00:19.166Z,33.72
2023-05-08T14:02:46.594Z,33.50
2023-05-08T14:05:14.038Z,33.98
2023-05-08T14:07:41.700Z,33.69
2023-05-08T14:10:09.383Z,33.83
2023-05-08T14:12:37.049Z,34.20
2023-05-08T14:15:05.106Z,34.35
2023-05-08T14:17:32.785Z,33.42
2023-05-08T14:20:00.227Z,33.36
2023-05-08T14:22:27.735Z,33.43
2023-05-08T14:24:54.982Z,33.61
2023-05-08T14:27:22.317Z,33.83
2023-05-08T14:29:49.818Z,34.43
2023-05-08T14:32:17.096Z,34.11
2023-05-08T14:34:44.689Z,33.85
2023-05-08T14:37:13.089Z,34.29
2023-05-08T14:39:40.602Z,34.64
2023-05-08T14:44:38.130Z,34.42
2023-05-08T14:47:05.417Z,34.13
2023-05-08T14:52:03.162Z,35.08
2023-05-08T14:54:30.848Z,34.87
2023-05-08T14:56:58.246Z,34.69
2023-05-08T14:59:25.680Z,34.91
2023-05-08T15:01:52.988Z,34.52
2023-05-08T15:04:20.915Z,33.96
2023-05-08T15:06:48.208Z,34.49
2023-05-08T15:09:16.751Z,34.03
2023-05-08T15:11:44.617Z,34.43
2023-05-08T15:14:11.884Z,33.90
2023-05-08T15:16:39.267Z,34.27
2023-05-08T15:19:06.503Z,34.63
2023-05-08T15:21:33.921Z,35.24
2023-05-08T15:24:01.125Z,34.28
2023-05-08T15:26:28.588Z,34.22
2023-05-08T15:28:55.780Z,33.94
2023-05-08T15:31:23.108Z,33.82
2023-05-08T15:33:50.370Z,34.30
2023-05-08T15:36:17.643Z,34.20
2023-05-08T15:38:44.859Z,34.78
2023-05-08T15:41:15.207Z,35.14
2023-05-08T15:43:45.140Z,35.03
2023-05-08T15:46:12.549Z,35.28
2023-05-08T15:48:39.887Z,34.93
2023-05-08T15:51:07.209Z,35.14
2023-05-08T15:53:35.331Z,35.69
2023-05-08T15:56:05.657Z,35.43
2023-05-08T15:58:32.934Z,34.58
2023-05-08T16:01:00.271Z,34.63
2023-05-08T16:03:27.658Z,34.91
2023-05-08T16:05:54.887Z,35.10
2023-05-08T16:08:22.129Z,35.56
2023-05-08T16:10:49.409Z,35.35
2023-05-08T16:13:17.190Z,34.83
2023-05-08T16:15:44.545Z,34.89
2023-05-08T16:18:11.959Z,35.15
2023-05-08T16:20:42.684Z,35.60
2023-05-08T16:23:09.874Z,36.32
2023-05-08T16:25:37.176Z,35.23
2023-05-08T16:28:04.522Z,35.42
2023-05-08T16:30:31.871Z,35.98
2023-05-08T16:32:59.232Z,36.68
2023-05-08T16:35:26.548Z,35.91
2023-05-08T16:37:53.844Z,35.87
2023-05-08T16:40:21.131Z,35.56
2023-05-08T16:42:48.453Z,35.52
2023-05-08T16:45:15.838Z,36.23
2023-05-08T16:47:43.499Z,35.98
2023-05-08T16:50:11.105Z,35.66
2023-05-08T16:52:39.015Z,36.51
2023-05-08T16:55:06.770Z,36.18
2023-05-08T16:57:34.594Z,36.40
2023-05-08T17:00:01.896Z,36.16
2023-05-08T17:02:29.565Z,36.44
2023-05-08T17:04:56.997Z,36.36
2023-05-08T17:07:24.717Z,37.00
2023-05-08T17:09:55.894Z,37.45
2023-05-08T17:12:23.656Z,36.49
2023-05-08T17:14:51.975Z,37.70
2023-05-08T17:17:19.263Z,37.28
2023-05-08T17:19:46.486Z,38.21
2023-05-08T17:22:13.771Z,37.70
2023-05-08T17:24:41.028Z,37.73
2023-05-08T17:27:08.505Z,38.38
2023-05-08T17:29:35.777Z,38.21
2023-05-08T17:32:03.078Z,38.08
2023-05-08T17:34:30.384Z,38.46
2023-05-08T17:36:57.675Z,38.73
2023-05-08T17:39:24.880Z,38.40
2023-05-08T17:41:52.188Z,37.97
2023-05-08T17:44:19.382Z,38.11
2023-05-08T17:46:46.702Z,38.09
2023-05-08T17:49:15.431Z,38.31
2023-05-08T17:51:43.646Z,37.85
2023-05-08T17:54:10.848Z,38.37
2023-05-08T17:56:38.388Z,38.58
2023-05-08T17:59:05.613Z,38.61
2023-05-08T18:01:32.954Z,37.85
2023-05-08T18:04:00.670Z,38.27
2023-05-08T18:06:28.018Z,38.21
2023-05-08T18:08:55.279Z,38.30
2023-05-08T18:11:24.398Z,37.93
2023-05-08T18:13:52.527Z,37.94
2023-05-08T18:16:21.171Z,37.93
2023-05-08T18:18:49.453Z,37.92
2023-05-08T18:21:16.964Z,38.14
2023-05-08T18:23:44.341Z,37.89
2023-05-08T18:26:16.376Z,38.37
2023-05-08T18:28:43.823Z,38.46
2023-05-08T18:31:11.846Z,38.35
2023-05-08T18:33:39.441Z,38.56
2023-05-08T18:36:07.088Z,39.10
2023-05-08T18:38:34.765Z,39.26
2023-05-08T18:41:03.313Z,39.21
2023-05-08T18:43:30.812Z,39.32
2023-05-08T18:45:59.137Z,39.22
2023-05-08T18:48:26.658Z,39.03
2023-05-08T18:50:55.903Z,38.43
2023-05-08T18:53:23.187Z,39.01
2023-05-08T18:55:51.011Z,39.66
2023-05-08T18:58:19.747Z,39.15
2023-05-08T19:00:47.045Z,39.28
2023-05-08T19:03:14.569Z,38.92
2023-05-08T19:05:42.032Z,39.04
2023-05-08T19:08:09.383Z,39.05
2023-05-08T19:10:37.079Z,38.89
2023-05-08T19:13:04.435Z,38.92
2023-05-08T19:15:32.080Z,39.32
2023-05-08T19:18:04.553Z,38.90
2023-05-08T19:20:32.742Z,38.68
2023-05-08T19:23:00.012Z,38.81
2023-05-08T19:25:27.259Z,39.15
2023-05-08T19:27:54.526Z,39.76
2023-05-08T19:30:21.855Z,38.85
2023-05-08T19:32:49.603Z,39.33
2023-05-08T19:35:16.788Z,39.79
2023-05-08T19:37:44.176Z,39.66
2023-05-08T19:40:12.149Z,39.28
2023-05-08T19:42:39.729Z,39.49
2023-05-08T19:45:07.480Z,39.25
2023-05-08T19:47:34.731Z,40.50
2023-05-08T19:50:02.092Z,40.24
2023-05-08T19:52:29.401Z,39.18
2023-05-08T19:54:57.111Z,39.51
2023-05-08T19:57:24.954Z,39.81
2023-05-08T19:59:52.261Z,40.04
2023-05-08T20:02:21.357Z,39.47
2023-05-08T20:05:14.614Z,39.37
2023-05-08T20:07:36.370Z,39.13
2023-05-08T20:10:03.726Z,39.03
2023-05-08T20:12:31.242Z,39.35
2023-05-08T20:14:58.546Z,39.64
2023-05-08T20:17:25.942Z,39.95
2023-05-08T20:19:53.243Z,40.17
2023-05-08T20:22:20.883Z,40.38
2023-05-08T20:24:48.275Z,40.24
2023-05-08T20:27:15.652Z,39.96
2023-05-08T20:29:42.974Z,40.46
2023-05-08T20:32:14.667Z,40.40
2023-05-08T20:34:42.307Z,40.42
2023-05-08T20:37:09.620Z,40.32
2023-05-08T20:39:37.171Z,40.25
2023-05-08T20:42:04.383Z,40.95
2023-05-08T20:44:31.880Z,40.38
2023-05-08T20:46:59.130Z,40.11
2023-05-08T20:49:26.391Z,40.57
2023-05-08T20:51:53.689Z,40.49
2023-05-08T20:54:21.520Z,39.37
2023-05-08T20:56:48.747Z,40.23
2023-05-08T20:59:16.758Z,40.78
2023-05-08T21:01:44.212Z,40.72
2023-05-08T21:04:11.636Z,40.42
2023-05-08T21:06:39.100Z,40.29
2023-05-08T21:09:07.178Z,40.41
2023-05-08T21:11:34.581Z,40.08
2023-05-08T21:14:01.849Z,40.09
2023-05-08T21:16:29.148Z,40.05
2023-05-08T21:18:58.350Z,40.32
2023-05-08T21:21:25.913Z,40.12
2023-05-08T21:23:53.573Z,40.34
2023-05-08T21:26:23.626Z,40.71
2023-05-08T21:28:53.656Z,40.55
2023-05-08T21:31:20.994Z,39.91
2023-05-08T21:33:48.280Z,40.28
2023-05-08T21:36:15.489Z,39.60
2023-05-08T21:38:42.755Z,39.45
2023-05-08T21:41:10.050Z,39.66
2023-05-08T21:43:37.516Z,39.70
2023-05-08T21:46:05.232Z,40.11
2023-05-08T21:48:33.420Z,39.92
2023-05-08T21:51:00.702Z,40.38
2023-05-08T21:53:28.012Z,40.20
2023-05-08T21:55:55.450Z,40.28
2023-05-08T21:58:22.770Z,40.19
2023-05-08T22:00:50.136Z,40.27
2023-05-08T22:03:17.720Z,40.16
2023-05-08T22:05:45.181Z,39.80
2023-05-08T22:08:12.792Z,40.21
2023-05-08T22:10:40.176Z,40.17
2023-05-08T22:13:07.624Z,40.06
2023-05-08T22:15:35.321Z,40.23
2023-05-08T22:18:03.112Z,40.97
2023-05-08T22:20:30.873Z,39.77
2023-05-08T22:22:58.104Z,39.79
2023-05-08T22:25:26.750Z,40.45
2023-05-08T22:27:54.291Z,40.02
2023-05-08T22:30:21.690Z,40.44
2023-05-08T22:32:56.435Z,40.34
2023-05-08T22:35:24.866Z,40.29
2023-05-08T22:37:52.555Z,40.23
2023-05-08T22:40:20.628Z,40.80
2023-05-08T22:42:47.896Z,40.17
2023-05-08T22:45:15.562Z,40.43
2023-05-08T22:47:43.051Z,40.52
2023-05-08T22:50:11.744Z,40.03
2023-05-08T22:52:39.240Z,40.22
2023-05-08T22:55:07.278Z,40.50
2023-05-08T22:57:34.504Z,40.75
2023-05-08T23:00:01.839Z,40.55
2023-05-08T23:02:33.502Z,40.63
2023-05-08T23:05:01.971Z,40.62
2023-05-08T23:07:29.588Z,40.67
2023-05-08T23:09:57.151Z,40.57
2023-05-08T23:12:24.517Z,40.50
2023-05-08T23:14:51.979Z,40.48
2023-05-08T23:17:19.320Z,40.84
2023-05-08T23:19:46.591Z,40.48
2023-05-08T23:22:13.857Z,40.48
2023-05-08T23:24:41.098Z,40.43
2023-05-08T23:27:08.394Z,41.70
2023-05-08T23:29:36.072Z,41.33
2023-05-08T23:32:03.391Z,41.15
2023-05-08T23:34:30.706Z,40.59
2023-05-08T23:36:57.929Z,40.96
2023-05-08T23:39:25.261Z,40.93
2023-05-08T23:41:53.128Z,40.60
2023-05-08T23:44:20.844Z,40.80
2023-05-08T23:46:48.123Z,41.50
2023-05-08T23:49:15.531Z,41.03
2023-05-08T23:51:42.772Z,40.71
2023-05-08T23:54:10.058Z,40.47
2023-05-08T23:56:37.557Z,41.32
2023-05-08T23:59:04.959Z,41.42
